Parintins, Brazil
Current Conditions -  °F | °C
As of 7:00 AM on Friday 24 Oct 2014 (Local Time) from SBIC Reporting Station
Scattered Clouds Scattered Clouds  
Wind Chill: 26°   Ceiling: Unl
Heat Index: 28°   Visibility: 6mi
Dew Point: 25°   Wind: 3mph
Humidity: 94%   Direction: 310°NW
Pressure: 29.88"   Gusts: NA
Location:  2.61°S, 56.74°W
Report Text: SBIC 241100Z 31003KT 9999 SCT012 SCT100 26/25 Q1012
Loading
Personal Weather Stations






























Interactive Weather Map
Tropical Storm Tracking
New forecast layout! Learn more

10-Day Weather Forecast

Advertisements
Track Severe Weather on mobile